Time;durP1;ratioP1;P1;durP2;ratioP2;P2;SDS_P1;SDS_P2;PMS_P1;PMS_P2;Temp;Humidity;BMP_temperature;BMP_pressure;BME280_temperature;BME280_humidity;BME280_pressure;Samples;Min_cycle;Max_cycle;Signal;HPM_P1;HPM_P2
2023/03/14 00:00:10;;;;;;;2.50;1.90;;;;;;;2.91;45.50;99115.31;5016811;28;20471;-65
2023/03/14 00:02:37;;;;;;;3.10;2.20;;;;;;;2.53;45.66;99119.31;5017315;28;20183;-66
2023/03/14 00:05:06;;;;;;;5.27;2.30;;;;;;;2.53;45.45;99122.75;5000724;28;20045;-66
2023/03/14 00:07:36;;;;;;;6.57;2.53;;;;;;;2.71;45.40;99134.41;5017508;28;20060;-65
2023/03/14 00:10:05;;;;;;;2.75;2.10;;;;;;;2.98;45.17;99110.41;5000854;28;20536;-65
2023/03/14 00:12:31;;;;;;;2.87;2.00;;;;;;;2.85;44.68;99094.81;5017526;28;20117;-67
2023/03/14 00:14:57;;;;;;;3.40;2.50;;;;;;;2.63;44.58;99092.22;5017303;28;20061;-65
2023/03/14 00:17:23;;;;;;;5.70;1.80;;;;;;;2.73;44.96;99092.34;5017067;28;20053;-66
2023/03/14 00:19:52;;;;;;;3.37;1.90;;;;;;;2.73;44.84;99077.47;5033687;28;20045;-65
2023/03/14 00:22:18;;;;;;;4.40;1.83;;;;;;;2.93;44.71;99062.72;5033481;28;20056;-70
2023/03/14 00:24:44;;;;;;;7.30;1.80;;;;;;;2.82;44.38;99066.22;5000939;28;20048;-66
2023/03/14 00:27:09;;;;;;;4.33;1.73;;;;;;;2.84;44.87;99053.00;5016995;28;20128;-65
2023/03/14 00:29:35;;;;;;;4.07;2.00;;;;;;;2.96;44.66;99044.13;5000754;28;20131;-65
2023/03/14 00:32:01;;;;;;;6.30;1.77;;;;;;;2.81;44.55;99055.88;5016804;28;20183;-66
2023/03/14 00:34:31;;;;;;;4.97;2.10;;;;;;;3.37;44.68;99046.78;5016953;28;20041;-65
2023/03/14 00:36:56;;;;;;;2.17;1.50;;;;;;;2.87;44.58;99048.34;5000480;28;20072;-65
2023/03/14 00:39:22;;;;;;;2.53;1.50;;;;;;;3.06;44.56;99043.25;5000218;28;20091;-67
2023/03/14 00:41:50;;;;;;;6.00;1.70;;;;;;;3.11;44.54;99042.88;5000845;28;20473;-65
2023/03/14 00:44:16;;;;;;;2.30;1.60;;;;;;;3.11;44.91;99035.00;5017094;28;20047;-65
2023/03/14 00:46:42;;;;;;;4.37;1.60;;;;;;;3.23;44.49;99034.81;5033001;28;20072;-65
2023/03/14 00:49:07;;;;;;;1.87;1.50;;;;;;;3.32;44.59;99034.06;5016556;28;20045;-65
2023/03/14 00:51:33;;;;;;;2.87;1.63;;;;;;;3.18;45.28;99028.31;5016617;28;20056;-64
2023/03/14 00:54:02;;;;;;;4.27;1.70;;;;;;;3.44;45.53;99022.53;5000422;28;20045;-66
2023/03/14 00:56:28;;;;;;;1.70;1.60;;;;;;;3.21;46.22;99025.44;5016657;28;20106;-64
2023/03/14 00:58:55;;;;;;;7.40;2.93;;;;;;;3.23;46.44;99039.22;5016331;28;20048;-64
2023/03/14 01:01:21;;;;;;;2.83;1.60;;;;;;;3.16;46.81;99038.94;4996876;28;20068;-64
2023/03/14 01:03:47;;;;;;;1.97;1.63;;;;;;;3.15;47.11;99031.19;4981158;28;20038;-64
2023/03/14 01:06:17;;;;;;;2.63;1.70;;;;;;;3.09;48.32;99006.28;4997421;28;20041;-65
2023/03/14 01:08:44;;;;;;;2.30;1.67;;;;;;;2.92;48.61;99021.75;4997208;28;20447;-64
2023/03/14 01:11:12;;;;;;;2.50;1.70;;;;;;;3.21;49.08;99026.25;5031916;28;20136;-64
2023/03/14 01:13:38;;;;;;;3.80;1.80;;;;;;;3.17;50.10;99005.63;5000806;28;20045;-65
2023/03/14 01:16:06;;;;;;;4.30;1.83;;;;;;;3.52;50.23;99003.53;5001139;28;20042;-65
2023/03/14 01:18:33;;;;;;;4.00;1.80;;;;;;;3.42;50.70;99000.00;5000783;28;20514;-64
2023/03/14 01:20:58;;;;;;;4.67;1.87;;;;;;;3.33;51.16;99013.91;4984446;28;20076;-65
2023/03/14 01:23:24;;;;;;;3.00;1.90;;;;;;;3.42;51.55;98992.97;5000724;28;20088;-66
2023/03/14 01:25:50;;;;;;;2.80;1.70;;;;;;;3.37;51.73;99003.03;4984576;28;20056;-64
2023/03/14 01:28:16;;;;;;;4.40;2.00;;;;;;;3.27;53.25;99017.03;5000974;28;20481;-65
2023/03/14 01:30:42;;;;;;;2.83;2.00;;;;;;;3.17;54.09;99005.63;5000665;28;20049;-65
2023/03/14 01:33:07;;;;;;;2.50;2.07;;;;;;;3.12;54.74;98998.16;5000582;28;20049;-65
2023/03/14 01:35:33;;;;;;;4.10;2.30;;;;;;;3.51;54.89;98980.84;5000613;28;20420;-64
2023/03/14 01:37:59;;;;;;;4.20;2.57;;;;;;;3.34;55.42;98952.56;5000634;28;20080;-65
2023/03/14 01:40:25;;;;;;;3.30;2.30;;;;;;;3.30;55.90;98945.94;4984492;28;20065;-65
2023/03/14 01:43:05;;;;;;;4.40;2.10;;;;;;;4.12;56.22;98958.03;4983913;28;20474;-66
2023/03/14 01:46:05;;;;;;;6.30;2.27;;;;;;;4.25;55.80;98964.72;4984123;28;20037;-66
2023/03/14 01:48:38;;;;;;;;;;;;;;;4.43;55.88;98957.81;5016951;28;20049;-66
2023/03/14 01:51:06;;;;;;;3.43;2.30;;;;;;;3.84;56.93;98951.72;5000170;28;19921;-66
2023/03/14 01:53:34;;;;;;;6.10;2.60;;;;;;;3.84;57.64;98943.84;5016640;28;20053;-66
2023/03/14 01:56:00;;;;;;;5.97;2.60;;;;;;;3.57;58.01;98935.72;5016444;28;20148;-65
2023/03/14 01:58:27;;;;;;;9.33;2.83;;;;;;;3.95;57.95;98921.91;4984023;28;20187;-67
2023/03/14 02:00:57;;;;;;;4.27;3.23;;;;;;;4.09;57.73;98930.22;4988755;28;20551;-66
2023/03/14 02:03:24;;;;;;;4.93;2.50;;;;;;;4.11;58.16;98896.78;5000394;28;20045;-65
2023/03/14 02:05:50;;;;;;;4.20;2.60;;;;;;;3.97;58.50;98933.94;4983788;28;20073;-66
2023/03/14 02:08:21;;;;;;;6.63;3.00;;;;;;;4.13;59.59;98905.34;5016267;28;20055;-66
2023/03/14 02:10:53;;;;;;;10.03;3.10;;;;;;;3.67;60.24;98886.72;5016104;28;20057;-65
2023/03/14 02:13:37;;;;;;;4.20;2.80;;;;;;;3.98;60.25;98895.38;5002372;28;20041;-65
2023/03/14 02:16:17;;;;;;;7.80;2.90;;;;;;;3.93;59.60;98906.28;5001813;28;20367;-64
2023/03/14 02:19:02;;;;;;;6.40;3.10;;;;;;;4.09;59.92;98890.00;5002131;28;20509;-65
2023/03/14 02:22:00;;;;;;;5.93;3.30;;;;;;;4.28;60.21;98882.13;5000392;28;20053;-65
2023/03/14 02:24:49;;;;;;;6.77;3.23;;;;;;;4.10;74.77;98891.66;5032621;28;20128;-65
2023/03/14 02:27:18;;;;;;;6.30;3.50;;;;;;;3.90;64.81;98897.81;4999765;28;20049;-65
2023/03/14 02:29:51;;;;;;;7.13;3.40;;;;;;;4.38;63.48;98881.16;5016640;28;20075;-65
2023/03/14 02:32:18;;;;;;;4.87;3.07;;;;;;;4.10;62.14;98883.75;5032393;28;20530;-70
2023/03/14 02:34:49;;;;;;;6.50;3.80;;;;;;;4.37;62.11;98908.44;4999678;28;20489;-65
2023/03/14 02:37:15;;;;;;;9.45;3.80;;;;;;;3.98;62.32;98903.25;4983490;28;20052;-65
2023/03/14 02:39:44;;;;;;;6.73;3.77;;;;;;;4.37;62.40;98886.56;4967109;28;20052;-64
2023/03/14 02:42:11;;;;;;;6.00;4.07;;;;;;;4.09;61.76;98913.66;5015793;28;20057;-66
2023/03/14 02:44:48;;;;;;;6.40;4.00;;;;;;;4.37;62.94;98849.75;5015559;28;20056;-65
2023/03/14 02:47:14;;;;;;;5.33;3.43;;;;;;;3.98;62.94;98843.66;5015778;28;20041;-63
2023/03/14 02:49:40;;;;;;;5.70;3.67;;;;;;;4.26;62.85;98839.41;4999003;28;20041;-65
2023/03/14 02:52:06;;;;;;;6.43;4.10;;;;;;;3.92;62.94;98823.16;4999050;28;20096;-64
2023/03/14 02:54:32;;;;;;;4.83;3.37;;;;;;;4.05;63.36;98836.03;5014796;28;20607;-65
2023/03/14 02:56:58;;;;;;;7.67;3.83;;;;;;;4.03;64.03;98832.75;5015263;28;20477;-65
2023/03/14 02:59:25;;;;;;;8.00;4.10;;;;;;;4.35;64.01;98849.91;4998863;28;20045;-65
2023/03/14 03:02:00;;;;;;;5.63;3.37;;;;;;;4.18;63.75;98840.06;5032267;28;20057;-64
2023/03/14 03:04:26;;;;;;;6.50;3.90;;;;;;;4.15;64.63;98842.16;5018260;28;20040;-66
2023/03/14 03:06:52;;;;;;;6.77;3.53;;;;;;;4.37;64.31;98834.81;5002240;28;20068;-67
2023/03/14 03:09:20;;;;;;;12.63;4.30;;;;;;;4.51;64.71;98828.31;5001619;28;20041;-71
2023/03/14 03:11:46;;;;;;;14.97;4.37;;;;;;;4.12;64.24;98845.06;5018514;28;20045;-67
2023/03/14 03:14:17;;;;;;;10.53;4.53;;;;;;;4.26;65.08;98844.66;5018800;28;20041;-70
2023/03/14 03:16:43;;;;;;;7.97;4.43;;;;;;;4.35;64.60;98835.94;5002301;28;20370;-65
2023/03/14 03:19:10;;;;;;;5.93;4.13;;;;;;;4.40;65.30;98844.22;5017391;28;20439;-66
2023/03/14 03:21:36;;;;;;;6.80;4.20;;;;;;;4.25;64.88;98808.81;5018321;28;20114;-65
2023/03/14 03:24:01;;;;;;;5.90;3.47;;;;;;;4.45;65.90;98805.22;5017875;28;20041;-70
2023/03/14 03:26:34;;;;;;;11.17;4.23;;;;;;;4.73;66.80;98805.19;5002359;28;20492;-66
2023/03/14 03:29:04;;;;;;;8.23;3.78;;;;;;;4.43;68.50;98794.00;5001859;28;20044;-65
2023/03/14 03:31:30;;;;;;;4.97;2.87;;;;;;;4.62;66.15;98802.72;5034546;28;20106;-65
2023/03/14 03:33:57;;;;;;;7.17;2.77;;;;;;;4.64;65.90;98784.16;5017181;28;20515;-65
2023/03/14 03:36:25;;;;;;;7.40;3.40;;;;;;;4.74;66.42;98791.06;5017804;28;20044;-65
2023/03/14 03:38:51;;;;;;;4.60;3.03;;;;;;;4.59;66.55;98760.09;5017804;28;20037;-65
2023/03/14 03:41:17;;;;;;;5.73;3.40;;;;;;;4.40;66.81;98778.50;5017541;28;20075;-66
2023/03/14 03:43:42;;;;;;;6.33;3.57;;;;;;;4.52;66.49;98756.38;5033675;28;20088;-65
2023/03/14 03:46:10;;;;;;;5.63;3.37;;;;;;;4.62;66.81;98749.28;5017680;28;20041;-66
2023/03/14 03:48:36;;;;;;;6.40;3.20;;;;;;;4.71;67.25;98774.72;5018635;28;20037;-65
2023/03/14 03:51:04;;;;;;;2.80;2.17;;;;;;;4.62;67.52;98736.97;5037261;28;20088;-65
2023/03/14 03:53:30;;;;;;;6.37;2.90;;;;;;;4.72;67.45;98743.00;5004876;28;20047;-65
2023/03/14 03:55:56;;;;;;;2.17;1.50;;;;;;;4.74;66.97;98754.22;5020890;28;20040;-65
2023/03/14 03:58:22;;;;;;;2.90;2.13;;;;;;;4.65;69.10;98717.44;5020593;28;20041;-65
2023/03/14 04:00:48;;;;;;;1.73;1.63;;;;;;;4.82;69.18;98727.22;5016630;28;20049;-66
2023/03/14 04:03:14;;;;;;;5.10;2.33;;;;;;;4.94;67.70;98713.72;4997376;28;20041;-65
2023/03/14 04:05:40;;;;;;;1.90;1.80;;;;;;;4.89;67.40;98757.22;4991437;28;20051;-65
2023/03/14 04:08:09;;;;;;;3.10;2.10;;;;;;;4.84;68.03;98730.53;5037837;28;20055;-67
2023/03/14 04:10:36;;;;;;;4.13;2.40;;;;;;;5.06;67.65;98751.19;5037733;28;20498;-66
2023/03/14 04:13:23;;;;;;;2.53;1.80;;;;;;;5.08;67.73;98725.56;5026626;28;20504;-66
2023/03/14 04:15:52;;;;;;;1.43;1.33;;;;;;;5.18;67.46;98734.25;5021847;28;20040;-66
2023/03/14 04:18:24;;;;;;;3.23;1.63;;;;;;;5.28;69.81;98742.09;5005811;28;20977;-66
2023/03/14 04:20:54;;;;;;;1.47;1.37;;;;;;;5.28;67.70;98735.03;5054417;28;20047;-66
2023/03/14 04:23:26;;;;;;;1.33;1.23;;;;;;;5.49;67.48;98737.41;5029619;28;20060;-68
2023/03/14 04:26:09;;;;;;;2.73;1.73;;;;;;;5.64;66.87;98726.22;5036671;28;20044;-65
2023/03/14 04:28:36;;;;;;;3.03;2.20;;;;;;;5.42;66.73;98716.09;5002753;28;20047;-66
2023/03/14 04:31:10;;;;;;;3.07;1.83;;;;;;;5.90;66.96;98724.53;5021290;28;20821;-70
2023/03/14 04:33:37;;;;;;;1.83;1.40;;;;;;;5.74;65.63;98721.72;5021448;28;20055;-67
2023/03/14 04:36:04;;;;;;;4.27;2.97;;;;;;;5.95;65.97;98687.19;5038004;28;20040;-77
2023/03/14 04:38:31;;;;;;;2.63;2.43;;;;;;;5.76;64.89;98696.06;5037497;28;20499;-70
2023/03/14 04:40:59;;;;;;;3.03;2.30;;;;;;;5.82;65.30;98695.47;5037602;28;20052;-66
2023/03/14 04:43:29;;;;;;;3.23;1.73;;;;;;;5.80;65.33;98710.56;5024510;28;20470;-66
2023/03/14 04:46:02;;;;;;;2.57;2.37;;;;;;;5.95;64.98;98690.63;5010372;28;20036;-66
2023/03/14 04:48:28;;;;;;;2.83;2.27;;;;;;;6.11;64.90;98689.94;4998688;28;20677;-71
2023/03/14 04:50:55;;;;;;;2.07;1.87;;;;;;;5.97;64.94;98693.97;5029831;28;20064;-67
2023/03/14 04:53:21;;;;;;;2.27;1.63;;;;;;;6.06;64.35;98692.19;5000385;28;20041;-67
2023/03/14 04:55:54;;;;;;;2.73;2.10;;;;;;;6.46;64.61;98711.78;4980305;28;20041;-67
2023/03/14 04:58:22;;;;;;;1.03;1.00;;;;;;;6.28;64.48;98708.38;4980207;28;20458;-67
2023/03/14 05:00:50;;;;;;;2.33;2.13;;;;;;;6.29;64.36;98693.38;5006501;28;20456;-68
2023/03/14 05:03:45;;;;;;;2.53;2.00;;;;;;;6.09;63.79;98711.19;4956529;28;20072;-66
2023/03/14 05:06:10;;;;;;;2.57;1.77;;;;;;;6.34;63.97;98693.75;5016827;28;20040;-66
2023/03/14 05:08:55;;;;;;;1.90;1.33;;;;;;;6.25;64.01;98703.41;5005117;28;20495;-66
2023/03/14 05:11:44;;;;;;;0.93;0.93;;;;;;;6.33;64.07;98700.00;5015721;28;20061;-68
2023/03/14 05:14:48;;;;;;;3.07;2.30;;;;;;;6.40;64.34;98653.56;4980749;28;20056;-66
2023/03/14 05:17:29;;;;;;;1.15;1.10;;;;;;;6.38;63.66;98656.34;4993787;28;20474;-68
2023/03/14 05:20:13;;;;;;;4.40;2.37;;;;;;;6.45;64.00;98625.75;4994889;28;20069;-65
2023/03/14 05:23:02;;;;;;;1.30;1.20;;;;;;;6.61;63.54;98657.47;4950497;28;20154;-66
2023/03/14 05:25:47;;;;;;;1.17;1.17;;;;;;;6.73;62.92;98660.69;5003268;28;20059;-66
2023/03/14 05:28:32;;;;;;;2.37;1.97;;;;;;;6.88;62.83;98649.38;5005226;28;20044;-65
2023/03/14 05:31:24;;;;;;;1.90;1.80;;;;;;;6.79;62.33;98641.59;5016692;28;20084;-66
2023/03/14 05:33:58;;;;;;;2.37;2.13;;;;;;;6.96;61.83;98648.59;5002102;28;20110;-66
2023/03/14 05:36:32;;;;;;;1.33;1.20;;;;;;;6.84;61.81;98670.97;5001220;28;20076;-66
2023/03/14 05:39:18;;;;;;;1.50;1.40;;;;;;;6.93;61.46;98611.94;5011134;28;20063;-68
2023/03/14 05:41:55;;;;;;;1.07;1.07;;;;;;;6.94;60.92;98637.34;5002194;28;20049;-66
2023/03/14 05:44:22;;;;;;;3.57;1.70;;;;;;;7.01;60.44;98662.13;5000121;28;20632;-66
2023/03/14 05:46:57;;;;;;;2.50;1.80;;;;;;;7.18;60.05;98634.78;5033894;28;20060;-66
2023/03/14 05:49:45;;;;;;;2.10;1.83;;;;;;;6.96;59.60;98608.16;5018116;28;20053;-66
2023/03/14 05:52:29;;;;;;;2.97;2.03;;;;;;;7.11;59.03;98683.94;5032419;28;20466;-66
2023/03/14 05:55:13;;;;;;;1.37;1.27;;;;;;;7.18;58.50;98692.88;5016160;28;20041;-66
2023/03/14 05:57:54;;;;;;;1.33;1.30;;;;;;;7.38;57.99;98683.69;5005759;28;20040;-66
2023/03/14 06:00:46;;;;;;;1.57;1.47;;;;;;;7.19;57.45;98712.19;4991219;28;20106;-66
2023/03/14 06:03:23;;;;;;;2.50;1.87;;;;;;;7.32;57.17;98683.53;4984826;28;20482;-66
2023/03/14 06:05:52;;;;;;;1.73;1.50;;;;;;;7.71;57.30;98693.34;4983523;28;20096;-68
2023/03/14 06:08:20;;;;;;;1.33;1.23;;;;;;;7.56;56.71;98676.50;5000353;28;20045;-67
2023/03/14 06:10:46;;;;;;;1.37;1.27;;;;;;;7.50;56.75;98678.94;4967348;28;20048;-67
2023/03/14 06:13:12;;;;;;;2.13;1.23;;;;;;;7.56;56.40;98691.50;4988285;28;20480;-68
2023/03/14 06:15:38;;;;;;;2.27;1.87;;;;;;;7.45;56.23;98705.84;5038924;28;20094;-68
2023/03/14 06:18:04;;;;;;;1.70;1.60;;;;;;;7.55;56.23;98672.19;4987174;28;20041;-67
2023/03/14 06:20:30;;;;;;;1.37;1.27;;;;;;;7.66;55.98;98705.38;5002874;28;20041;-67
2023/03/14 06:22:57;;;;;;;1.30;1.13;;;;;;;7.76;55.45;98703.44;4986945;28;20037;-66
2023/03/14 06:25:23;;;;;;;4.00;1.50;;;;;;;7.61;55.45;98692.66;5019089;28;20051;-66
2023/03/14 06:27:50;;;;;;;1.43;1.33;;;;;;;7.81;54.96;98653.56;5019367;28;20064;-67
2023/03/14 06:30:16;;;;;;;11.47;1.97;;;;;;;7.70;55.52;98697.00;5002821;28;20041;-67
2023/03/14 06:32:43;;;;;;;4.20;2.03;;;;;;;7.60;55.43;98729.81;5002733;28;20041;-66
2023/03/14 06:35:12;;;;;;;7.83;2.60;;;;;;;7.83;54.92;98699.13;5019814;28;20064;-67
2023/03/14 06:37:41;;;;;;;9.37;3.60;;;;;;;7.98;54.58;98694.88;5019564;28;20051;-66
2023/03/14 06:40:09;;;;;;;5.87;2.77;;;;;;;8.14;54.37;98679.00;4986720;28;20480;-66
2023/03/14 06:42:55;;;;;;;8.47;3.20;;;;;;;7.91;54.01;98697.34;5032758;28;20159;-66
2023/03/14 06:45:23;;;;;;;10.53;3.07;;;;;;;8.08;53.71;98703.47;4990915;28;20526;-66
2023/03/14 06:47:50;;;;;;;5.13;2.83;;;;;;;8.03;53.43;98680.16;4991462;28;20141;-66
2023/03/14 06:50:22;;;;;;;10.27;3.23;;;;;;;8.04;53.53;98644.78;4959655;28;20103;-67
2023/03/14 06:52:49;;;;;;;12.27;3.20;;;;;;;8.11;53.10;98677.53;4991264;28;20057;-68
2023/03/14 06:55:20;;;;;;;6.65;3.10;;;;;;;8.15;52.96;98659.47;4974776;28;20058;-66
2023/03/14 06:57:47;;;;;;;5.23;3.00;;;;;;;8.05;52.77;98646.47;4975047;28;20050;-65
2023/03/14 07:00:13;;;;;;;16.57;3.10;;;;;;;8.21;53.01;98678.16;4927266;28;20065;-65
2023/03/14 07:02:40;;;;;;;9.93;3.20;;;;;;;8.28;52.21;98689.78;5006905;28;20057;-65
2023/03/14 07:05:10;;;;;;;13.23;3.60;;;;;;;8.28;52.25;98655.41;4962384;28;20081;-66
2023/03/14 07:07:36;;;;;;;5.10;2.80;;;;;;;8.36;52.10;98662.50;4961309;28;20084;-67
2023/03/14 07:10:02;;;;;;;5.30;3.17;;;;;;;8.42;51.82;98665.28;4978154;28;20077;-67
2023/03/14 07:12:28;;;;;;;8.03;3.10;;;;;;;8.41;51.38;98662.81;5009926;28;20046;-67
2023/03/14 07:14:54;;;;;;;4.57;2.93;;;;;;;8.40;50.96;98695.53;4974268;28;20084;-66
2023/03/14 07:17:21;;;;;;;11.83;3.00;;;;;;;8.57;50.57;98671.53;4975864;28;20375;-67
2023/03/14 07:19:48;;;;;;;7.55;2.88;;;;;;;8.65;51.42;98677.81;4977635;28;20111;-66
2023/03/14 07:22:13;;;;;;;12.80;4.20;;;;;;;8.71;50.71;98685.06;4993458;28;20049;-65
2023/03/14 07:24:39;;;;;;;9.18;2.72;;;;;;;8.69;50.69;98666.69;4999403;28;20033;-62
2023/03/14 07:27:05;;;;;;;5.10;2.75;;;;;;;8.84;50.16;98669.50;5013524;28;20049;-68
2023/03/14 07:29:31;;;;;;;6.40;2.50;;;;;;;8.92;49.62;98696.75;5013681;28;20083;-59
2023/03/14 07:31:57;;;;;;;5.85;2.80;;;;;;;8.99;48.71;98681.00;4978769;28;20073;-64
2023/03/14 07:34:24;;;;;;;5.90;2.97;;;;;;;9.05;47.79;98720.88;5013595;28;20052;-62
2023/03/14 07:36:50;;;;;;;9.23;3.20;;;;;;;9.09;47.75;98697.50;5013489;28;20046;-64
2023/03/14 07:39:16;;;;;;;6.90;3.33;;;;;;;9.21;46.91;98707.56;5013400;28;20060;-64
2023/03/14 07:42:03;;;;;;;8.18;3.20;;;;;;;9.31;46.64;98699.41;5016372;28;20466;-63
2023/03/14 07:44:47;;;;;;;3.78;2.70;;;;;;;9.18;46.37;98699.97;5013052;28;20465;-64
2023/03/14 07:47:13;;;;;;;5.20;2.75;;;;;;;9.23;46.57;98681.75;4996919;28;20045;-63
2023/03/14 07:49:39;;;;;;;5.38;3.08;;;;;;;9.23;46.41;98707.41;5013377;28;20095;-65
2023/03/14 07:52:04;;;;;;;5.55;2.67;;;;;;;9.45;46.17;98707.47;5021304;28;20063;-63
2023/03/14 07:54:30;;;;;;;5.50;2.75;;;;;;;9.49;45.46;98699.97;5040874;28;20051;-65
2023/03/14 07:57:00;;;;;;;5.85;2.85;;;;;;;9.72;45.15;98669.03;5040709;28;20127;-64
2023/03/14 07:59:27;;;;;;;5.03;3.20;;;;;;;9.98;45.09;98696.03;5041177;28;20047;-66
2023/03/14 08:01:53;;;;;;;4.88;2.95;;;;;;;9.77;44.74;98693.19;5040204;28;20056;-67
2023/03/14 08:04:19;;;;;;;4.38;3.00;;;;;;;9.76;44.02;98702.16;5024003;28;20089;-67
2023/03/14 08:06:44;;;;;;;6.00;2.60;;;;;;;9.98;43.79;98650.94;5056923;28;20044;-67
2023/03/14 08:09:10;;;;;;;5.43;2.55;;;;;;;10.12;43.59;98701.44;5057057;28;20091;-69
2023/03/14 08:11:36;;;;;;;8.73;2.63;;;;;;;10.01;43.69;98690.34;5023108;28;20039;-70
2023/03/14 08:14:02;;;;;;;8.40;2.60;;;;;;;10.09;43.52;98704.44;5091715;28;20075;-68
2023/03/14 08:16:28;;;;;;;4.57;2.72;;;;;;;10.18;43.00;98707.84;5040072;28;20040;-68
2023/03/14 08:18:54;;;;;;;4.97;2.60;;;;;;;10.04;43.07;98664.31;5023311;28;20548;-67
2023/03/14 08:21:19;;;;;;;5.13;2.83;;;;;;;10.16;42.77;98681.47;5040037;28;20135;-70
2023/03/14 08:23:45;;;;;;;6.78;3.20;;;;;;;10.43;42.50;98682.75;5039861;28;20550;-68
2023/03/14 08:26:11;;;;;;;10.00;3.35;;;;;;;10.30;42.64;98687.03;5040319;28;20132;-68
2023/03/14 08:28:38;;;;;;;8.70;3.75;;;;;;;10.27;42.53;98682.91;5019587;28;20041;-67
2023/03/14 08:31:04;;;;;;;6.07;2.95;;;;;;;10.41;42.23;98679.44;5003712;28;20048;-68
2023/03/14 08:33:30;;;;;;;10.60;3.17;;;;;;;10.53;42.07;98679.84;5053096;28;20052;-70
2023/03/14 08:35:59;;;;;;;5.03;3.28;;;;;;;10.74;42.04;98702.03;5015625;28;20471;-69
2023/03/14 08:38:25;;;;;;;6.88;2.95;;;;;;;10.64;41.69;98674.91;5035720;28;20046;-69
2023/03/14 08:40:58;;;;;;;8.13;3.00;;;;;;;11.13;41.33;98677.84;5019952;28;20526;-68
2023/03/14 08:43:25;;;;;;;6.65;3.25;;;;;;;10.66;41.11;98696.78;5036277;28;20055;-67
2023/03/14 08:45:50;;;;;;;6.32;3.08;;;;;;;10.83;41.05;98705.41;5052780;28;20097;-68
2023/03/14 08:48:16;;;;;;;5.95;3.60;;;;;;;10.92;40.58;98697.19;5020044;28;20036;-69
2023/03/14 08:50:43;;;;;;;5.07;2.78;;;;;;;10.85;40.53;98698.94;5019747;28;20052;-69
2023/03/14 08:53:09;;;;;;;6.57;3.38;;;;;;;10.81;40.01;98723.38;5019369;28;20608;-71
2023/03/14 08:55:35;;;;;;;7.75;3.00;;;;;;;10.64;40.27;98717.38;5019957;28;20040;-69
2023/03/14 08:58:01;;;;;;;5.78;3.00;;;;;;;10.85;40.32;98698.09;5000657;28;20040;-71
2023/03/14 09:00:27;;;;;;;5.22;2.60;;;;;;;10.76;40.04;98689.41;5018156;28;20079;-68
2023/03/14 09:02:54;;;;;;;3.95;2.33;;;;;;;10.80;39.93;98708.44;5019700;28;20052;-69
2023/03/14 09:05:21;;;;;;;5.30;2.70;;;;;;;10.86;39.92;98691.75;5052650;28;20048;-70
2023/03/14 09:07:47;;;;;;;3.50;2.58;;;;;;;10.89;39.61;98710.81;5035918;28;20044;-71
2023/03/14 09:10:13;;;;;;;3.60;2.50;;;;;;;10.92;39.41;98715.78;4994478;28;20057;-70
2023/03/14 09:12:38;;;;;;;6.50;2.50;;;;;;;10.93;39.38;98696.16;5009450;28;20085;-77
2023/03/14 09:15:05;;;;;;;4.18;2.63;;;;;;;11.06;38.97;98687.56;4959422;28;20528;-72
2023/03/14 09:17:34;;;;;;;4.55;2.60;;;;;;;11.17;38.77;98706.53;4975923;28;20041;-68
2023/03/14 09:20:00;;;;;;;3.55;2.63;;;;;;;11.16;38.48;98718.16;4989697;28;20089;-68
2023/03/14 09:22:26;;;;;;;4.18;2.50;;;;;;;11.15;38.51;98697.91;4960233;28;20603;-69
2023/03/14 09:24:52;;;;;;;8.30;3.17;;;;;;;11.23;38.47;98697.81;4992099;28;20073;-68
2023/03/14 09:27:18;;;;;;;6.40;2.80;;;;;;;11.40;38.10;98687.78;4983710;28;20045;-68
2023/03/14 09:29:43;;;;;;;4.75;2.75;;;;;;;11.44;37.94;98699.72;5003086;28;20505;-68
2023/03/14 09:32:11;;;;;;;5.10;2.83;;;;;;;11.50;37.92;98712.28;4976191;28;20436;-67
2023/03/14 09:34:37;;;;;;;6.07;2.90;;;;;;;11.55;37.85;98712.50;4968895;28;20041;-68
2023/03/14 09:37:03;;;;;;;4.63;3.00;;;;;;;11.64;37.54;98714.09;4974192;28;20631;-68
2023/03/14 09:39:29;;;;;;;9.57;3.53;;;;;;;11.62;37.11;98684.19;4987880;28;20057;-69
2023/03/14 09:41:57;;;;;;;5.25;3.00;;;;;;;11.77;37.20;98700.94;5043962;28;20057;-67
2023/03/14 09:44:27;;;;;;;5.35;3.15;;;;;;;11.84;37.17;98692.03;5022459;28;20048;-67
2023/03/14 09:46:55;;;;;;;5.27;2.90;;;;;;;11.98;36.99;98687.66;5018829;28;20499;-67
2023/03/14 09:49:27;;;;;;;9.95;3.35;;;;;;;12.02;37.03;98693.44;5031973;28;20396;-67
2023/03/14 09:51:54;;;;;;;5.85;2.80;;;;;;;11.99;36.87;98677.84;5022731;28;20048;-67
2023/03/14 09:54:30;;;;;;;6.47;3.30;;;;;;;12.10;36.60;98680.81;5022319;28;20044;-69
2023/03/14 09:56:56;;;;;;;6.50;3.00;;;;;;;11.89;36.57;98678.16;5021963;28;20117;-67
2023/03/14 09:59:21;;;;;;;5.85;3.03;;;;;;;11.88;36.79;98687.16;5018852;28;20045;-67
2023/03/14 10:01:47;;;;;;;8.02;2.80;;;;;;;11.81;36.66;98639.19;5002123;28;20052;-68
2023/03/14 10:04:17;;;;;;;7.13;2.80;;;;;;;12.02;36.81;98680.13;5035363;28;20148;-69
2023/03/14 10:06:43;;;;;;;6.93;2.78;;;;;;;11.81;36.58;98652.50;5022033;28;20125;-68
2023/03/14 10:09:29;;;;;;;10.05;2.97;;;;;;;12.06;36.79;98652.09;5006582;28;20105;-71
2023/03/14 10:11:57;;;;;;;6.57;3.47;;;;;;;12.01;36.67;98650.00;5021915;28;20794;-67
2023/03/14 10:14:34;;;;;;;8.18;3.00;;;;;;;12.33;36.49;98654.78;5055741;28;20044;-67
2023/03/14 10:17:09;;;;;;;4.40;2.80;;;;;;;12.29;36.04;98704.13;5039378;28;20055;-67
2023/03/14 10:19:36;;;;;;;5.18;2.95;;;;;;;12.11;36.25;98682.47;5044852;28;20110;-68
2023/03/14 10:22:04;;;;;;;3.75;2.50;;;;;;;12.29;36.03;98682.00;5024718;28;20169;-67
2023/03/14 10:24:35;;;;;;;7.70;3.22;;;;;;;12.29;36.07;98616.28;5054930;28;20056;-69
2023/03/14 10:27:04;;;;;;;6.25;2.90;;;;;;;12.25;35.93;98684.25;5038974;28;20511;-68
2023/03/14 10:29:31;;;;;;;5.68;3.10;;;;;;;12.35;35.90;98651.94;5038335;28;20491;-70
2023/03/14 10:32:01;;;;;;;4.35;2.90;;;;;;;12.63;36.28;98660.75;5022060;28;20044;-66
2023/03/14 10:34:33;;;;;;;4.00;2.77;;;;;;;12.56;36.20;98642.06;5022131;28;20052;-67
2023/03/14 10:37:06;;;;;;;6.22;3.05;;;;;;;12.65;36.46;98669.38;5021813;28;20051;-67
2023/03/14 10:40:05;;;;;;;4.95;3.17;;;;;;;12.65;37.21;98654.25;5021171;28;20044;-68
2023/03/14 10:42:39;;;;;;;5.93;3.20;;;;;;;12.88;37.61;98638.81;5024392;28;20059;-68
2023/03/14 10:45:26;;;;;;;7.50;3.28;;;;;;;12.65;37.08;98659.56;5021941;28;20044;-68
2023/03/14 10:47:52;;;;;;;7.00;3.30;;;;;;;12.43;37.47;98630.50;5053179;28;20068;-69
2023/03/14 10:50:27;;;;;;;8.30;3.10;;;;;;;12.75;37.51;98659.19;5021481;28;20076;-68
2023/03/14 10:52:54;;;;;;;11.38;3.28;;;;;;;12.70;37.16;98633.13;5001421;28;20041;-67
2023/03/14 10:55:21;;;;;;;9.00;3.20;;;;;;;12.82;36.66;98636.09;5005482;28;20119;-72
2023/03/14 10:57:46;;;;;;;5.45;3.08;;;;;;;12.66;36.49;98623.91;5021359;28;20051;-70
2023/03/14 11:00:20;;;;;;;5.93;3.20;;;;;;;13.05;36.28;98624.13;5021340;28;20045;-70
2023/03/14 11:02:54;;;;;;;4.65;2.70;;;;;;;12.64;35.66;98635.78;5054212;28;20037;-71
2023/03/14 11:05:26;;;;;;;4.95;2.80;;;;;;;13.12;35.78;98619.66;5020539;28;20040;-70
2023/03/14 11:08:18;;;;;;;5.47;2.88;;;;;;;13.35;34.99;98644.16;5020901;28;20036;-70
2023/03/14 11:10:48;;;;;;;5.85;3.30;;;;;;;13.14;35.17;98616.81;5030257;28;20105;-71
2023/03/14 11:13:21;;;;;;;7.97;3.00;;;;;;;13.37;34.80;98635.97;5019858;28;20533;-70
2023/03/14 11:16:12;;;;;;;9.10;3.33;;;;;;;13.57;34.17;98632.34;5036956;28;20067;-70
2023/03/14 11:19:15;;;;;;;6.05;3.00;;;;;;;13.40;34.33;98632.91;5020810;28;20032;-72
2023/03/14 11:21:52;;;;;;;7.20;3.15;;;;;;;13.67;34.07;98621.28;5014505;28;20041;-71
2023/03/14 11:24:37;;;;;;;7.90;3.13;;;;;;;13.51;33.75;98611.00;5047237;28;20094;-72
2023/03/14 11:27:21;;;;;;;6.75;3.33;;;;;;;13.96;33.38;98638.78;5055907;28;20060;-71
2023/03/14 11:30:15;;;;;;;6.28;2.90;;;;;;;13.88;33.08;98652.31;5035129;28;20037;-73
2023/03/14 11:33:24;;;;;;;6.55;3.03;;;;;;;13.83;33.31;98644.94;5025875;28;20481;-72
2023/03/14 11:36:04;;;;;;;6.10;3.17;;;;;;;13.96;33.17;98654.81;4978953;28;20844;-70
2023/03/14 11:38:49;;;;;;;6.20;3.00;;;;;;;13.88;33.41;98655.00;4961147;28;20160;-69
2023/03/14 11:41:23;;;;;;;19.48;5.88;;;;;;;13.78;33.39;98667.91;4993722;28;20053;-74
2023/03/14 11:43:55;;;;;;;7.32;3.58;;;;;;;13.59;33.35;98653.50;4996256;28;20033;-70
2023/03/14 11:46:45;;;;;;;6.88;3.20;;;;;;;13.71;33.17;98648.38;4963016;28;20055;-69
2023/03/14 11:49:33;;;;;;;7.93;2.85;;;;;;;13.70;33.18;98630.75;4988666;28;20056;-70
2023/03/14 11:52:04;;;;;;;4.28;2.95;;;;;;;13.67;32.96;98645.28;4960201;28;20045;-71
2023/03/14 11:54:46;;;;;;;6.35;3.20;;;;;;;13.79;32.71;98640.19;4978237;28;20045;-73